GLD1069 ZUTF-ZLXN
Flight info
| Callsign | GLD1069 |
|---|---|
| Flight time | 1h 9m |
| Altitude | 36100 |
| Route | BOKIR9G BOKIR W179 OMBON W195 VIDEK/K0846S1070 W195 ORUNA/K0845S1100 V117 IKOMU/K0845S1070 W248 GOVSU W111 UPVOP UPV19A |
| Aircraft | A320/M-SDE3FGHIRWY/LB1 |
Departure
| Time | 2026-04-14 01:09 |
|---|---|
| Airport | Chengdu Tianfu International Airport (ZUTF) |
Arrival
| Time | 2026-04-14 02:18 |
|---|---|
| Airport | Xining Caojiabao International Airport (ZLXN) |
| Time | Latitude | Longitude | Altitude | Speed | Heading |
|---|---|---|---|---|---|
| 2026-04-14 00:24 | 30.30965 | 104.43866 | 1453 ft | 0 kts | 291° |
| 2026-04-14 00:55 | 30.30958 | 104.43893 | 1453 ft | 4 kts | 274° |
| 2026-04-14 00:55 | 30.30962 | 104.43921 | 1453 ft | 4 kts | 229° |
| 2026-04-14 00:56 | 30.30971 | 104.43930 | 1446 ft | 0 kts | 202° |
| 2026-04-14 00:58 | 30.30965 | 104.43927 | 1449 ft | 3 kts | 201° |
| 2026-04-14 00:58 | 30.30929 | 104.43910 | 1453 ft | 8 kts | 201° |
| 2026-04-14 00:59 | 30.30865 | 104.43881 | 1453 ft | 11 kts | 202° |
| 2026-04-14 00:59 | 30.30784 | 104.43842 | 1453 ft | 13 kts | 202° |
| 2026-04-14 00:59 | 30.30699 | 104.43796 | 1453 ft | 14 kts | 204° |
| 2026-04-14 00:59 | 30.30608 | 104.43753 | 1454 ft | 15 kts | 202° |
| 2026-04-14 01:00 | 30.30511 | 104.43707 | 1454 ft | 15 kts | 201° |
| 2026-04-14 01:00 | 30.30489 | 104.43609 | 1454 ft | 15 kts | 292° |
| 2026-04-14 01:00 | 30.30529 | 104.43495 | 1453 ft | 16 kts | 292° |
| 2026-04-14 01:00 | 30.30573 | 104.43375 | 1453 ft | 17 kts | 290° |
| 2026-04-14 01:01 | 30.30616 | 104.43247 | 1453 ft | 17 kts | 292° |
| 2026-04-14 01:01 | 30.30664 | 104.43115 | 1449 ft | 18 kts | 290° |
| 2026-04-14 01:01 | 30.30708 | 104.42974 | 1452 ft | 19 kts | 291° |
| 2026-04-14 01:01 | 30.30714 | 104.42860 | 1452 ft | 14 kts | 208° |
| 2026-04-14 01:02 | 30.30620 | 104.42817 | 1452 ft | 15 kts | 202° |
| 2026-04-14 01:02 | 30.30520 | 104.42770 | 1452 ft | 16 kts | 203° |
| 2026-04-14 01:02 | 30.30415 | 104.42721 | 1452 ft | 17 kts | 202° |
| 2026-04-14 01:02 | 30.30304 | 104.42669 | 1451 ft | 18 kts | 203° |
| 2026-04-14 01:03 | 30.30186 | 104.42613 | 1452 ft | 19 kts | 202° |
| 2026-04-14 01:03 | 30.30060 | 104.42555 | 1452 ft | 20 kts | 203° |
| 2026-04-14 01:03 | 30.29926 | 104.42492 | 1452 ft | 21 kts | 202° |
| 2026-04-14 01:03 | 30.29788 | 104.42427 | 1451 ft | 22 kts | 201° |
| 2026-04-14 01:04 | 30.29639 | 104.42358 | 1451 ft | 22 kts | 201° |
| 2026-04-14 01:04 | 30.29523 | 104.42301 | 1451 ft | 16 kts | 205° |
| 2026-04-14 01:04 | 30.29407 | 104.42248 | 1451 ft | 19 kts | 200° |
| 2026-04-14 01:04 | 30.29281 | 104.42190 | 1450 ft | 20 kts | 198° |
| 2026-04-14 01:05 | 30.29135 | 104.42119 | 1450 ft | 23 kts | 201° |
| 2026-04-14 01:05 | 30.29007 | 104.42061 | 1447 ft | 18 kts | 204° |
| 2026-04-14 01:05 | 30.28984 | 104.41961 | 1446 ft | 15 kts | 296° |
| 2026-04-14 01:05 | 30.29001 | 104.41915 | 1450 ft | 0 kts | 290° |
| 2026-04-14 01:07 | 30.29020 | 104.41853 | 1450 ft | 15 kts | 291° |
| 2026-04-14 01:07 | 30.29068 | 104.41767 | 1450 ft | 12 kts | 352° |
| 2026-04-14 01:07 | 30.29091 | 104.41775 | 1449 ft | 0 kts | 21° |
| 2026-04-14 01:08 | 30.29102 | 104.41780 | 1449 ft | 12 kts | 21° |
| 2026-04-14 01:08 | 30.29431 | 104.41936 | 1451 ft | 86 kts | 22° |
| 2026-04-14 01:08 | 30.30170 | 104.42281 | 1450 ft | 140 kts | 22° |
| 2026-04-14 01:08 | 30.31206 | 104.42772 | 1484 ft | 177 kts | 22° |
| 2026-04-14 01:09 | 30.32315 | 104.43311 | 2112 ft | 173 kts | 21° |
| 2026-04-14 01:09 | 30.33485 | 104.43654 | 2704 ft | 177 kts | 5° |
| 2026-04-14 01:09 | 30.34796 | 104.43780 | 2891 ft | 202 kts | 3° |
| 2026-04-14 01:09 | 30.36284 | 104.43938 | 3122 ft | 228 kts | 5° |
| 2026-04-14 01:10 | 30.37366 | 104.44081 | 3357 ft | 244 kts | 6° |
| 2026-04-14 01:10 | 30.39730 | 104.44506 | 4125 ft | 263 kts | 15° |
| 2026-04-14 01:10 | 30.40868 | 104.44993 | 4759 ft | 263 kts | 25° |
| 2026-04-14 01:10 | 30.42492 | 104.45966 | 5706 ft | 262 kts | 31° |
| 2026-04-14 01:11 | 30.44580 | 104.47415 | 6873 ft | 266 kts | 32° |
| 2026-04-14 01:11 | 30.45647 | 104.48183 | 7426 ft | 268 kts | 33° |
| 2026-04-14 01:11 | 30.47236 | 104.49313 | 8310 ft | 268 kts | 31° |
| 2026-04-14 01:11 | 30.48842 | 104.50402 | 9258 ft | 266 kts | 30° |
| 2026-04-14 01:12 | 30.50461 | 104.51466 | 10079 ft | 269 kts | 29° |
| 2026-04-14 01:12 | 30.52115 | 104.52522 | 10688 ft | 279 kts | 29° |
| 2026-04-14 01:12 | 30.53886 | 104.53646 | 10891 ft | 302 kts | 29° |
| 2026-04-14 01:12 | 30.55803 | 104.54867 | 11065 ft | 326 kts | 29° |
| 2026-04-14 01:13 | 30.57856 | 104.56179 | 11201 ft | 348 kts | 29° |
| 2026-04-14 01:13 | 30.60016 | 104.57558 | 11602 ft | 359 kts | 29° |
| 2026-04-14 01:13 | 30.62227 | 104.58969 | 12172 ft | 366 kts | 28° |
| 2026-04-14 01:13 | 30.64471 | 104.60405 | 12760 ft | 371 kts | 28° |
| 2026-04-14 01:14 | 30.66721 | 104.61849 | 13333 ft | 377 kts | 28° |
| 2026-04-14 01:14 | 30.69076 | 104.63335 | 13921 ft | 383 kts | 25° |
| 2026-04-14 01:14 | 30.71583 | 104.64298 | 14480 ft | 387 kts | 10° |
| 2026-04-14 01:14 | 30.74273 | 104.64418 | 15040 ft | 391 kts | 353° |
| 2026-04-14 01:15 | 30.76902 | 104.63574 | 15600 ft | 395 kts | 337° |
| 2026-04-14 01:15 | 30.79421 | 104.62267 | 16180 ft | 398 kts | 336° |
| 2026-04-14 01:15 | 30.81948 | 104.60926 | 16747 ft | 401 kts | 335° |
| 2026-04-14 01:15 | 30.84493 | 104.59559 | 17310 ft | 404 kts | 335° |
| 2026-04-14 01:16 | 30.87060 | 104.58182 | 17874 ft | 408 kts | 335° |
| 2026-04-14 01:16 | 30.89646 | 104.56804 | 18409 ft | 411 kts | 335° |
| 2026-04-14 01:16 | 30.92256 | 104.55420 | 18873 ft | 413 kts | 335° |
| 2026-04-14 01:16 | 30.94883 | 104.54032 | 19335 ft | 416 kts | 335° |
| 2026-04-14 01:18 | 31.13728 | 104.44022 | 22267 ft | 434 kts | 334° |
| 2026-04-14 01:18 | 31.16486 | 104.42549 | 22641 ft | 436 kts | 333° |
| 2026-04-14 01:19 | 31.19212 | 104.41093 | 22996 ft | 438 kts | 333° |
| 2026-04-14 01:19 | 31.22036 | 104.39592 | 23360 ft | 441 kts | 335° |
| 2026-04-14 01:19 | 31.24958 | 104.38426 | 23687 ft | 446 kts | 344° |
| 2026-04-14 01:19 | 31.27989 | 104.37831 | 23972 ft | 452 kts | 353° |
| 2026-04-14 01:20 | 31.31141 | 104.37638 | 24244 ft | 455 kts | 355° |
| 2026-04-14 01:20 | 31.34308 | 104.37460 | 24517 ft | 457 kts | 354° |
| 2026-04-14 01:20 | 31.37489 | 104.37277 | 24793 ft | 459 kts | 354° |
| 2026-04-14 01:20 | 31.40683 | 104.37090 | 25048 ft | 461 kts | 354° |
| 2026-04-14 01:21 | 31.43898 | 104.36901 | 25295 ft | 463 kts | 354° |
| 2026-04-14 01:21 | 31.47127 | 104.36711 | 25546 ft | 465 kts | 354° |
| 2026-04-14 01:21 | 31.50364 | 104.36521 | 25787 ft | 467 kts | 354° |
| 2026-04-14 01:21 | 31.53618 | 104.36330 | 26036 ft | 469 kts | 354° |
| 2026-04-14 01:22 | 31.56882 | 104.36136 | 26263 ft | 471 kts | 354° |
| 2026-04-14 01:22 | 31.60166 | 104.35940 | 26490 ft | 473 kts | 354° |
| 2026-04-14 01:22 | 31.63452 | 104.35746 | 26713 ft | 474 kts | 354° |
| 2026-04-14 01:22 | 31.66754 | 104.35553 | 26928 ft | 476 kts | 354° |
| 2026-04-14 01:23 | 31.70063 | 104.35362 | 27211 ft | 476 kts | 354° |
| 2026-04-14 01:23 | 31.73366 | 104.35173 | 27512 ft | 475 kts | 354° |
| 2026-04-14 01:23 | 31.76666 | 104.34983 | 27804 ft | 475 kts | 354° |
| 2026-04-14 01:23 | 31.79964 | 104.34797 | 28109 ft | 474 kts | 354° |
| 2026-04-14 01:24 | 31.83264 | 104.34622 | 28501 ft | 473 kts | 354° |
| 2026-04-14 01:24 | 31.86549 | 104.34454 | 28824 ft | 473 kts | 354° |
| 2026-04-14 01:24 | 31.89838 | 104.34288 | 29138 ft | 472 kts | 354° |
| 2026-04-14 01:24 | 31.93123 | 104.34124 | 29444 ft | 472 kts | 354° |
| 2026-04-14 01:25 | 31.96405 | 104.33962 | 29780 ft | 472 kts | 353° |
| 2026-04-14 01:25 | 31.99683 | 104.33799 | 30114 ft | 471 kts | 353° |
| 2026-04-14 01:25 | 32.02957 | 104.33635 | 30391 ft | 470 kts | 353° |
| 2026-04-14 01:25 | 32.06230 | 104.33470 | 30641 ft | 470 kts | 353° |
| 2026-04-14 01:26 | 32.09503 | 104.33301 | 30842 ft | 470 kts | 353° |
| 2026-04-14 01:26 | 32.12765 | 104.33131 | 31090 ft | 469 kts | 353° |
| 2026-04-14 01:26 | 32.15977 | 104.32964 | 31377 ft | 468 kts | 353° |
| 2026-04-14 01:26 | 32.19231 | 104.32796 | 31708 ft | 467 kts | 353° |
| 2026-04-14 01:27 | 32.22471 | 104.32630 | 31985 ft | 467 kts | 353° |
| 2026-04-14 01:27 | 32.25718 | 104.32463 | 32295 ft | 466 kts | 353° |
| 2026-04-14 01:27 | 32.28955 | 104.32296 | 32570 ft | 466 kts | 353° |
| 2026-04-14 01:27 | 32.32190 | 104.32125 | 32832 ft | 466 kts | 353° |
| 2026-04-14 01:28 | 32.35425 | 104.31954 | 33047 ft | 465 kts | 352° |
| 2026-04-14 01:28 | 32.38663 | 104.31783 | 33233 ft | 466 kts | 352° |
| 2026-04-14 01:28 | 32.41904 | 104.31612 | 33466 ft | 466 kts | 352° |
| 2026-04-14 01:28 | 32.45138 | 104.31448 | 33695 ft | 466 kts | 353° |
| 2026-04-14 01:29 | 32.48373 | 104.31296 | 33970 ft | 466 kts | 353° |
| 2026-04-14 01:29 | 32.51613 | 104.31150 | 34211 ft | 465 kts | 353° |
| 2026-04-14 01:29 | 32.54839 | 104.31003 | 34399 ft | 464 kts | 352° |
| 2026-04-14 01:29 | 32.58073 | 104.30849 | 34626 ft | 465 kts | 352° |
| 2026-04-14 01:30 | 32.61305 | 104.30689 | 34879 ft | 466 kts | 352° |
| 2026-04-14 01:30 | 32.64552 | 104.30531 | 35135 ft | 466 kts | 352° |
| 2026-04-14 01:30 | 32.67788 | 104.30375 | 35397 ft | 465 kts | 351° |
| 2026-04-14 01:30 | 32.71016 | 104.30221 | 35576 ft | 465 kts | 351° |
| 2026-04-14 01:31 | 32.74251 | 104.30063 | 35766 ft | 465 kts | 351° |
| 2026-04-14 01:31 | 32.77485 | 104.29904 | 35979 ft | 465 kts | 351° |
| 2026-04-14 01:31 | 32.80680 | 104.29749 | 36160 ft | 467 kts | 351° |
| 2026-04-14 01:32 | 32.87212 | 104.29435 | 36224 ft | 470 kts | 351° |
| 2026-04-14 01:32 | 32.93744 | 104.29129 | 36200 ft | 470 kts | 351° |
| 2026-04-14 01:33 | 33.00276 | 104.28820 | 36200 ft | 469 kts | 351° |
| 2026-04-14 01:33 | 33.06802 | 104.28502 | 36198 ft | 469 kts | 351° |
| 2026-04-14 01:34 | 33.13326 | 104.28178 | 36189 ft | 469 kts | 351° |
| 2026-04-14 01:34 | 33.19858 | 104.27851 | 36203 ft | 470 kts | 351° |
| 2026-04-14 01:35 | 33.26390 | 104.27535 | 36202 ft | 470 kts | 351° |
| 2026-04-14 01:35 | 33.32901 | 104.27081 | 36217 ft | 463 kts | 344° |
| 2026-04-14 01:36 | 33.38909 | 104.24859 | 36245 ft | 445 kts | 326° |
| 2026-04-14 01:36 | 33.44234 | 104.21301 | 36251 ft | 441 kts | 323° |
| 2026-04-14 01:37 | 33.49577 | 104.17660 | 36248 ft | 441 kts | 323° |
| 2026-04-14 01:37 | 33.54912 | 104.14020 | 36244 ft | 441 kts | 324° |
| 2026-04-14 01:38 | 33.63987 | 104.11167 | 36236 ft | 468 kts | 353° |
| 2026-04-14 01:38 | 33.70507 | 104.11198 | 36258 ft | 468 kts | 353° |
| 2026-04-14 01:39 | 33.77039 | 104.11216 | 36247 ft | 470 kts | 353° |
| 2026-04-14 01:39 | 33.83587 | 104.11215 | 36237 ft | 470 kts | 353° |
| 2026-04-14 01:40 | 33.90080 | 104.11206 | 36249 ft | 469 kts | 353° |
| 2026-04-14 01:40 | 33.96606 | 104.11196 | 36259 ft | 470 kts | 353° |
| 2026-04-14 01:41 | 34.03142 | 104.11200 | 36249 ft | 468 kts | 353° |
| 2026-04-14 01:41 | 34.09661 | 104.11205 | 36236 ft | 468 kts | 353° |
| 2026-04-14 01:42 | 34.16145 | 104.11200 | 36238 ft | 468 kts | 352° |
| 2026-04-14 01:42 | 34.22667 | 104.11196 | 36263 ft | 470 kts | 353° |
| 2026-04-14 01:43 | 34.29209 | 104.11200 | 36249 ft | 470 kts | 353° |
| 2026-04-14 01:43 | 34.35708 | 104.11204 | 36254 ft | 470 kts | 353° |
| 2026-04-14 01:44 | 34.42248 | 104.11201 | 36256 ft | 471 kts | 353° |
| 2026-04-14 01:44 | 34.48781 | 104.11199 | 36288 ft | 469 kts | 353° |
| 2026-04-14 01:45 | 34.55312 | 104.11201 | 36281 ft | 469 kts | 353° |
| 2026-04-14 01:45 | 34.61792 | 104.11203 | 36271 ft | 469 kts | 353° |
| 2026-04-14 01:46 | 34.68198 | 104.11197 | 36298 ft | 468 kts | 352° |
| 2026-04-14 01:46 | 34.74668 | 104.11198 | 36285 ft | 468 kts | 352° |
| 2026-04-14 01:47 | 34.81176 | 104.11191 | 36276 ft | 468 kts | 352° |
| 2026-04-14 01:47 | 34.87680 | 104.11189 | 36270 ft | 467 kts | 352° |
| 2026-04-14 01:48 | 34.94190 | 104.11194 | 36297 ft | 468 kts | 352° |
| 2026-04-14 01:48 | 35.00680 | 104.11198 | 36279 ft | 467 kts | 352° |
| 2026-04-14 01:49 | 35.07153 | 104.11192 | 36274 ft | 468 kts | 352° |
| 2026-04-14 01:49 | 35.13672 | 104.11189 | 36280 ft | 469 kts | 352° |
| 2026-04-14 01:50 | 35.20190 | 104.11198 | 36302 ft | 468 kts | 352° |
| 2026-04-14 01:50 | 35.26713 | 104.11202 | 36300 ft | 468 kts | 352° |
| 2026-04-14 01:51 | 35.33220 | 104.11195 | 36296 ft | 467 kts | 352° |
| 2026-04-14 01:51 | 35.39723 | 104.11163 | 36296 ft | 465 kts | 348° |
| 2026-04-14 01:52 | 35.42790 | 104.10336 | 36320 ft | 441 kts | 327° |
| 2026-04-14 01:52 | 35.45403 | 104.08504 | 36323 ft | 427 kts | 317° |
| 2026-04-14 01:52 | 35.50224 | 104.04271 | 36308 ft | 428 kts | 318° |
| 2026-04-14 01:53 | 35.55158 | 104.00210 | 36304 ft | 427 kts | 318° |
| 2026-04-14 01:53 | 35.60045 | 103.96185 | 36293 ft | 427 kts | 318° |
| 2026-04-14 01:54 | 35.65005 | 103.92017 | 36287 ft | 423 kts | 314° |
| 2026-04-14 01:54 | 35.69259 | 103.87148 | 36284 ft | 415 kts | 306° |
| 2026-04-14 01:55 | 35.73130 | 103.81899 | 36287 ft | 414 kts | 305° |
| 2026-04-14 01:55 | 35.77009 | 103.76660 | 36284 ft | 415 kts | 306° |
| 2026-04-14 01:56 | 35.80964 | 103.71532 | 36284 ft | 416 kts | 307° |
| 2026-04-14 01:56 | 35.84981 | 103.66398 | 36285 ft | 416 kts | 307° |
| 2026-04-14 01:57 | 35.88991 | 103.61247 | 36285 ft | 416 kts | 307° |
| 2026-04-14 01:57 | 35.92990 | 103.56082 | 36287 ft | 416 kts | 307° |
| 2026-04-14 01:58 | 35.96988 | 103.50913 | 36288 ft | 416 kts | 307° |
| 2026-04-14 01:58 | 36.00309 | 103.46605 | 36329 ft | 416 kts | 307° |
| 2026-04-14 01:59 | 36.03035 | 103.43211 | 36182 ft | 420 kts | 315° |
| 2026-04-14 01:59 | 36.04639 | 103.41841 | 36013 ft | 427 kts | 324° |
| 2026-04-14 01:59 | 36.07412 | 103.40391 | 35765 ft | 440 kts | 336° |
| 2026-04-14 01:59 | 36.10459 | 103.39692 | 35519 ft | 453 kts | 348° |
| 2026-04-14 02:00 | 36.13646 | 103.39794 | 35265 ft | 466 kts | 1° |
| 2026-04-14 02:00 | 36.16834 | 103.40784 | 35018 ft | 480 kts | 15° |
| 2026-04-14 02:00 | 36.19917 | 103.42463 | 34786 ft | 485 kts | 18° |
| 2026-04-14 02:00 | 36.22991 | 103.44203 | 34571 ft | 486 kts | 18° |
| 2026-04-14 02:01 | 36.27089 | 103.46411 | 34274 ft | 480 kts | 10° |
| 2026-04-14 02:01 | 36.29256 | 103.47038 | 34106 ft | 469 kts | 359° |
| 2026-04-14 02:01 | 36.32454 | 103.47086 | 33836 ft | 453 kts | 344° |
| 2026-04-14 02:01 | 36.35456 | 103.46156 | 33514 ft | 438 kts | 331° |
| 2026-04-14 02:02 | 36.38082 | 103.44460 | 32660 ft | 425 kts | 318° |
| 2026-04-14 02:02 | 36.40253 | 103.42070 | 31890 ft | 413 kts | 306° |
| 2026-04-14 02:02 | 36.41900 | 103.39193 | 31095 ft | 406 kts | 295° |
| 2026-04-14 02:02 | 36.42988 | 103.35978 | 30244 ft | 403 kts | 284° |
| 2026-04-14 02:03 | 36.43476 | 103.32564 | 29295 ft | 401 kts | 272° |
| 2026-04-14 02:03 | 36.43352 | 103.29114 | 28426 ft | 400 kts | 261° |
| 2026-04-14 02:03 | 36.42629 | 103.25774 | 27481 ft | 404 kts | 250° |
| 2026-04-14 02:03 | 36.41596 | 103.22566 | 26478 ft | 407 kts | 252° |
| 2026-04-14 02:04 | 36.40745 | 103.19204 | 25464 ft | 409 kts | 257° |
| 2026-04-14 02:04 | 36.40158 | 103.15736 | 24471 ft | 411 kts | 263° |
| 2026-04-14 02:04 | 36.39853 | 103.12198 | 23544 ft | 412 kts | 268° |
| 2026-04-14 02:04 | 36.39830 | 103.08653 | 22751 ft | 409 kts | 273° |
| 2026-04-14 02:05 | 36.40072 | 103.05150 | 22055 ft | 405 kts | 278° |
| 2026-04-14 02:05 | 36.40555 | 103.01720 | 21376 ft | 404 kts | 281° |
| 2026-04-14 02:05 | 36.41091 | 102.98308 | 20665 ft | 401 kts | 281° |
| 2026-04-14 02:05 | 36.41622 | 102.94917 | 19987 ft | 399 kts | 281° |
| 2026-04-14 02:06 | 36.42151 | 102.91540 | 19316 ft | 397 kts | 281° |
| 2026-04-14 02:06 | 36.42676 | 102.88171 | 18647 ft | 396 kts | 281° |
| 2026-04-14 02:06 | 36.43195 | 102.84818 | 17911 ft | 396 kts | 281° |
| 2026-04-14 02:06 | 36.43675 | 102.81459 | 17165 ft | 395 kts | 281° |
| 2026-04-14 02:07 | 36.44347 | 102.78207 | 16469 ft | 393 kts | 289° |
| 2026-04-14 02:07 | 36.45440 | 102.75119 | 15956 ft | 388 kts | 298° |
| 2026-04-14 02:07 | 36.46898 | 102.72372 | 15802 ft | 374 kts | 306° |
| 2026-04-14 02:07 | 36.48435 | 102.69830 | 15628 ft | 361 kts | 306° |
| 2026-04-14 02:08 | 36.49903 | 102.67358 | 15471 ft | 348 kts | 302° |
| 2026-04-14 02:08 | 36.50879 | 102.64681 | 15311 ft | 335 kts | 284° |
| 2026-04-14 02:08 | 36.51147 | 102.61861 | 15156 ft | 325 kts | 268° |
| 2026-04-14 02:08 | 36.50754 | 102.59132 | 15005 ft | 317 kts | 252° |
| 2026-04-14 02:09 | 36.49844 | 102.56678 | 14863 ft | 309 kts | 245° |
| 2026-04-14 02:09 | 36.48886 | 102.54331 | 14718 ft | 299 kts | 245° |
| 2026-04-14 02:09 | 36.47975 | 102.52101 | 14587 ft | 280 kts | 245° |
| 2026-04-14 02:09 | 36.47122 | 102.50014 | 14464 ft | 262 kts | 245° |
| 2026-04-14 02:10 | 36.46328 | 102.48067 | 14290 ft | 246 kts | 246° |
| 2026-04-14 02:10 | 36.45559 | 102.46196 | 13885 ft | 240 kts | 245° |
| 2026-04-14 02:10 | 36.44809 | 102.44380 | 13512 ft | 233 kts | 245° |
| 2026-04-14 02:10 | 36.44070 | 102.42596 | 13202 ft | 229 kts | 245° |
| 2026-04-14 02:11 | 36.43507 | 102.40847 | 12902 ft | 215 kts | 259° |
| 2026-04-14 02:11 | 36.43395 | 102.39050 | 12577 ft | 204 kts | 275° |
| 2026-04-14 02:11 | 36.43684 | 102.37368 | 12295 ft | 194 kts | 288° |
| 2026-04-14 02:11 | 36.44102 | 102.35815 | 12034 ft | 186 kts | 288° |
| 2026-04-14 02:12 | 36.44516 | 102.34320 | 11793 ft | 182 kts | 288° |
| 2026-04-14 02:12 | 36.44934 | 102.32829 | 11546 ft | 182 kts | 289° |
| 2026-04-14 02:12 | 36.45351 | 102.31349 | 11313 ft | 182 kts | 289° |
| 2026-04-14 02:12 | 36.45766 | 102.29876 | 11074 ft | 180 kts | 289° |
| 2026-04-14 02:13 | 36.46175 | 102.28423 | 10844 ft | 176 kts | 289° |
| 2026-04-14 02:13 | 36.46576 | 102.26998 | 10616 ft | 173 kts | 289° |
| 2026-04-14 02:13 | 36.46972 | 102.25591 | 10401 ft | 171 kts | 289° |
| 2026-04-14 02:13 | 36.47364 | 102.24196 | 10188 ft | 171 kts | 289° |
| 2026-04-14 02:14 | 36.47755 | 102.22805 | 9952 ft | 171 kts | 289° |
| 2026-04-14 02:14 | 36.48147 | 102.21411 | 9717 ft | 170 kts | 289° |
| 2026-04-14 02:14 | 36.48536 | 102.20023 | 9492 ft | 170 kts | 289° |
| 2026-04-14 02:14 | 36.48924 | 102.18640 | 9255 ft | 169 kts | 289° |
| 2026-04-14 02:15 | 36.49312 | 102.17259 | 9019 ft | 169 kts | 289° |
| 2026-04-14 02:15 | 36.49699 | 102.15879 | 8788 ft | 169 kts | 289° |
| 2026-04-14 02:15 | 36.50086 | 102.14495 | 8546 ft | 169 kts | 289° |
| 2026-04-14 02:15 | 36.50472 | 102.13117 | 8316 ft | 169 kts | 289° |
| 2026-04-14 02:16 | 36.50859 | 102.11734 | 8090 ft | 169 kts | 289° |
| 2026-04-14 02:16 | 36.51246 | 102.10358 | 7881 ft | 168 kts | 289° |
| 2026-04-14 02:16 | 36.51633 | 102.08989 | 7688 ft | 168 kts | 289° |
| 2026-04-14 02:16 | 36.52004 | 102.07619 | 7496 ft | 167 kts | 288° |
| 2026-04-14 02:17 | 36.52385 | 102.06257 | 7282 ft | 167 kts | 290° |
| 2026-04-14 02:17 | 36.52769 | 102.04918 | 7172 ft | 158 kts | 288° |
| 2026-04-14 02:17 | 36.53071 | 102.03833 | 7186 ft | 110 kts | 289° |
| 2026-04-14 02:17 | 36.53253 | 102.03177 | 7194 ft | 52 kts | 290° |
| 2026-04-14 02:18 | 36.53363 | 102.02782 | 7206 ft | 45 kts | 289° |
| 2026-04-14 02:18 | 36.53456 | 102.02454 | 7201 ft | 36 kts | 289° |
| 2026-04-14 02:18 | 36.53528 | 102.02195 | 7217 ft | 26 kts | 287° |
| 2026-04-14 02:18 | 36.53552 | 102.02105 | 7218 ft | 9 kts | 288° |
| 2026-04-14 02:19 | 36.53565 | 102.01990 | 7223 ft | 13 kts | 266° |
| 2026-04-14 02:19 | 36.53509 | 102.01923 | 7224 ft | 12 kts | 202° |
| 2026-04-14 02:19 | 36.53428 | 102.01920 | 7223 ft | 13 kts | 142° |
| 2026-04-14 02:19 | 36.53388 | 102.02031 | 7221 ft | 16 kts | 109° |
| 2026-04-14 02:20 | 36.53348 | 102.02171 | 7216 ft | 19 kts | 110° |
| 2026-04-14 02:20 | 36.53301 | 102.02337 | 7213 ft | 22 kts | 108° |
| 2026-04-14 02:20 | 36.53251 | 102.02522 | 7200 ft | 24 kts | 109° |
| 2026-04-14 02:20 | 36.53193 | 102.02717 | 7197 ft | 21 kts | 110° |
| 2026-04-14 02:21 | 36.53145 | 102.02898 | 7201 ft | 23 kts | 108° |
| 2026-04-14 02:21 | 36.53098 | 102.03094 | 7201 ft | 24 kts | 106° |
| 2026-04-14 02:21 | 36.53049 | 102.03290 | 7189 ft | 21 kts | 109° |
| 2026-04-14 02:21 | 36.52985 | 102.03406 | 7188 ft | 14 kts | 166° |
| 2026-04-14 02:22 | 36.52900 | 102.03385 | 7194 ft | 13 kts | 197° |
| 2026-04-14 02:22 | 36.52815 | 102.03380 | 7189 ft | 13 kts | 136° |
| 2026-04-14 02:22 | 36.52779 | 102.03494 | 7194 ft | 16 kts | 107° |
| 2026-04-14 02:22 | 36.52736 | 102.03627 | 7192 ft | 16 kts | 127° |
| 2026-04-14 02:23 | 36.52692 | 102.03733 | 7187 ft | 13 kts | 109° |
| 2026-04-14 02:23 | 36.52656 | 102.03794 | 7179 ft | 6 kts | 171° |
| 2026-04-14 02:23 | 36.52625 | 102.03783 | 7182 ft | 3 kts | 199° |
| 2026-04-14 02:23 | 36.52621 | 102.03782 | 7185 ft | 0 kts | 199° |